Walnut Grove, Alabama
Current Conditions -  °F | °C
As of 4:15 AM on Thursday 27 Nov 2014 (Local Time) from K8A0 Reporting Station
Overcast Overcast  
Wind Chill: -1°   Ceiling: 4300
Heat Index:   Visibility: 10mi
Dew Point:   Wind: 10mph
Humidity: 93%   Direction: 280°W
Pressure: 30.18"   Gusts: NA
Location:  34.07°N, 86.31°W
Report Text: K8A0 271015Z AUTO 28009KT 10SM BKN043 OVC049 03/02 A3018 RMK AO2
Loading
Personal Weather Stations






























Interactive Weather Map New forecast layout! Learn more

10-Day Weather Forecast

Advertisements
Track Severe Weather on mobile